Time;durP1;ratioP1;P1;durP2;ratioP2;P2;SDS_P1;SDS_P2;PMS_P1;PMS_P2;Temp;Humidity;BMP_temperature;BMP_pressure;BME280_temperature;BME280_humidity;BME280_pressure;Samples;Min_cycle;Max_cycle;Signal;HPM_P1;HPM_P2
2022/12/09 00:02:25;;;;;;;19.40;14.47;;;;;;;;;;5087871;28;20442;-77
2022/12/09 00:04:52;;;;;;;18.93;15.33;;;;;;;;;;5087519;28;20458;-77
2022/12/09 00:07:19;;;;;;;18.93;14.20;;;;;;;;;;5089396;28;20451;-77
2022/12/09 00:09:48;;;;;;;18.67;14.57;;;;;;;;;;5091567;28;20443;-76
2022/12/09 00:12:15;;;;;;;16.83;14.30;;;;;;;;;;5091258;28;20448;-76
2022/12/09 00:14:42;;;;;;;16.90;14.27;;;;;;;;;;5091197;28;20458;-77
2022/12/09 00:17:09;;;;;;;17.33;14.93;;;;;;;;;;5090935;28;20440;-76
2022/12/09 00:19:36;;;;;;;18.13;14.90;;;;;;;;;;5091513;28;20447;-76
2022/12/09 00:22:03;;;;;;;16.67;14.60;;;;;;;;;;5090921;28;20448;-77
2022/12/09 00:24:30;;;;;;;16.27;14.37;;;;;;;;;;5090821;28;20456;-76
2022/12/09 00:26:58;;;;;;;16.03;14.40;;;;;;;;;;5091878;28;20467;-76
2022/12/09 00:29:25;;;;;;;16.63;14.40;;;;;;;;;;5096431;28;20451;-75
2022/12/09 00:31:52;;;;;;;17.50;14.70;;;;;;;;;;5094017;28;20450;-76
2022/12/09 00:34:20;;;;;;;17.13;15.17;;;;;;;;;;5093744;28;20491;-77
2022/12/09 00:36:47;;;;;;;17.93;14.60;;;;;;;;;;5092987;28;20471;-76
2022/12/09 00:39:14;;;;;;;17.40;14.30;;;;;;;;;;5100029;28;20452;-75
2022/12/09 00:41:41;;;;;;;18.77;15.13;;;;;;;;;;5114718;28;20430;-76
2022/12/09 00:44:10;;;;;;;17.40;14.37;;;;;;;;;;5112113;28;20452;-76
2022/12/09 00:46:37;;;;;;;18.53;14.60;;;;;;;;;;5107200;28;20470;-76
2022/12/09 00:49:04;;;;;;;17.90;14.93;;;;;;;;;;5097713;28;20448;-76
2022/12/09 00:51:31;;;;;;;16.77;14.90;;;;;;;;;;5093001;28;20436;-76
2022/12/09 00:53:58;;;;;;;18.10;14.37;;;;;;;;;;5091439;28;20483;-75
2022/12/09 00:56:27;;;;;;;18.03;13.83;;;;;;;;;;5092137;28;21158;-75
2022/12/09 00:58:55;;;;;;;16.10;14.40;;;;;;;;;;5071390;28;20512;-76
2022/12/09 01:01:23;;;;;;;16.70;14.00;;;;;;;;;;5072883;28;20809;-76
2022/12/09 01:03:50;;;;;;;19.70;15.43;;;;;;;;;;5075524;28;20440;-75
2022/12/09 01:06:18;;;;;;;16.00;14.30;;;;;;;;;;5075768;28;20464;-75
2022/12/09 01:08:45;;;;;;;18.63;14.10;;;;;;;;;;5075617;28;20460;-76
2022/12/09 01:11:13;;;;;;;19.50;14.60;;;;;;;;;;5078577;28;20452;-76
2022/12/09 01:13:40;;;;;;;14.87;12.50;;;;;;;;;;5074682;28;20483;-76
2022/12/09 01:16:14;;;;;;;18.00;13.20;;;;;;;;;;5077471;28;20475;-77
2022/12/09 01:18:42;;;;;;;13.30;11.43;;;;;;;;;;5078776;28;20421;-76
2022/12/09 01:21:09;;;;;;;13.80;12.00;;;;;;;;;;5074716;28;20452;-75
2022/12/09 01:23:36;;;;;;;14.80;11.53;;;;;;;;;;5074395;28;20436;-75
2022/12/09 01:26:04;;;;;;;16.67;12.33;;;;;;;;;;5074818;28;20464;-76
2022/12/09 01:28:31;;;;;;;13.03;11.83;;;;;;;;;;5074759;28;20436;-75
2022/12/09 01:31:04;;;;;;;14.77;13.00;;;;;;;;;;5075488;28;20463;-75
2022/12/09 01:33:31;;;;;;;14.53;13.03;;;;;;;;;;5077136;28;20485;-75
2022/12/09 01:36:00;;;;;;;14.63;12.90;;;;;;;;;;5077448;28;20475;-76
2022/12/09 01:38:27;;;;;;;14.67;12.03;;;;;;;;;;5077937;28;20436;-75
2022/12/09 01:40:54;;;;;;;14.33;12.83;;;;;;;;;;5078221;28;20451;-75
2022/12/09 01:43:21;;;;;;;15.13;12.97;;;;;;;;;;5080007;28;20448;-77
2022/12/09 01:45:48;;;;;;;13.03;11.47;;;;;;;;;;5082687;28;21066;-75
2022/12/09 01:48:16;;;;;;;17.27;12.67;;;;;;;;;;5086777;28;20436;-76
2022/12/09 01:50:45;;;;;;;17.30;13.43;;;;;;;;;;5086726;28;20436;-76
2022/12/09 01:53:14;;;;;;;15.60;12.17;;;;;;;;;;5089363;28;20498;-76
2022/12/09 01:55:42;;;;;;;13.57;11.80;;;;;;;;;;5087180;28;20468;-76
2022/12/09 01:58:09;;;;;;;17.10;12.80;;;;;;;;;;5086732;28;20449;-75
2022/12/09 02:00:37;;;;;;;14.20;12.80;;;;;;;;;;5086446;28;20459;-76
2022/12/09 02:03:04;;;;;;;13.60;12.20;;;;;;;;;;5085938;28;20455;-76
2022/12/09 02:05:31;;;;;;;14.03;11.97;;;;;;;;;;5084582;28;20456;-75
2022/12/09 02:07:58;;;;;;;14.10;12.60;;;;;;;;;;5087398;28;20440;-76
2022/12/09 02:10:27;;;;;;;13.57;12.27;;;;;;;;;;5077447;28;20444;-76
2022/12/09 02:12:57;;;;;;;16.00;13.87;;;;;;;;;;5072032;28;20432;-77
2022/12/09 02:15:28;;;;;;;18.10;13.30;;;;;;;;;;5072172;28;20484;-76
2022/12/09 02:17:57;;;;;;;15.77;13.33;;;;;;;;;;5072337;28;20457;-76
2022/12/09 02:20:28;;;;;;;13.67;12.27;;;;;;;;;;5072025;28;20444;-76
2022/12/09 02:23:01;;;;;;;15.87;14.07;;;;;;;;;;5071491;28;20421;-76
2022/12/09 02:25:31;;;;;;;16.27;14.40;;;;;;;;;;5071747;28;20460;-75
2022/12/09 02:28:13;;;;;;;18.60;15.30;;;;;;;;;;5071215;28;20432;-75
2022/12/09 02:30:41;;;;;;;18.03;14.70;;;;;;;;;;5070940;28;20420;-75
2022/12/09 02:33:22;;;;;;;16.90;13.40;;;;;;;;;;5071185;28;20440;-75
2022/12/09 02:35:52;;;;;;;16.10;14.50;;;;;;;;;;5071123;28;20468;-76
2022/12/09 02:38:21;;;;;;;16.23;14.10;;;;;;;;;;5070321;28;20432;-77
2022/12/09 02:40:51;;;;;;;15.33;13.63;;;;;;;;;;5070656;28;20448;-76
2022/12/09 02:43:21;;;;;;;16.93;14.30;;;;;;;;;;5070217;28;20471;-76
2022/12/09 02:45:49;;;;;;;17.70;15.63;;;;;;;;;;5070230;28;20838;-75
2022/12/09 02:48:19;;;;;;;18.10;15.17;;;;;;;;;;5070514;28;20436;-76
2022/12/09 02:50:47;;;;;;;19.70;15.43;;;;;;;;;;5070589;28;20449;-76
2022/12/09 02:53:16;;;;;;;17.60;15.10;;;;;;;;;;5069873;28;21154;-76
2022/12/09 02:55:45;;;;;;;18.10;14.83;;;;;;;;;;5070292;28;20468;-77
2022/12/09 02:58:12;;;;;;;17.37;13.67;;;;;;;;;;5070069;28;20441;-76
2022/12/09 03:00:40;;;;;;;16.40;13.17;;;;;;;;;;5069977;28;20968;-76
2022/12/09 03:03:10;;;;;;;16.63;13.57;;;;;;;;;;5069835;28;21021;-76
2022/12/09 03:05:40;;;;;;;19.33;14.10;;;;;;;;;;5070295;28;20568;-76
2022/12/09 03:08:11;;;;;;;16.27;13.90;;;;;;;;;;5070323;28;20441;-75
2022/12/09 03:10:44;;;;;;;18.40;13.90;;;;;;;;;;5070364;28;20437;-75
2022/12/09 03:13:14;;;;;;;18.33;14.27;;;;;;;;;;5070287;28;20425;-75
2022/12/09 03:15:44;;;;;;;16.53;14.47;;;;;;;;;;5070695;28;20472;-76
2022/12/09 03:18:13;;;;;;;17.20;14.20;;;;;;;;;;5070622;28;20441;-76
2022/12/09 03:20:41;;;;;;;20.83;13.93;;;;;;;;;;5070752;28;20783;-76
2022/12/09 03:23:10;;;;;;;15.27;13.30;;;;;;;;;;5070230;28;20441;-75
2022/12/09 03:25:39;;;;;;;18.37;14.20;;;;;;;;;;5070391;28;20472;-75
2022/12/09 03:28:10;;;;;;;14.93;13.37;;;;;;;;;;5070199;28;20444;-75
2022/12/09 03:30:38;;;;;;;14.63;13.07;;;;;;;;;;5070158;28;20425;-77
2022/12/09 03:33:05;;;;;;;14.20;12.70;;;;;;;;;;5069893;28;20447;-76
2022/12/09 03:35:34;;;;;;;16.03;14.23;;;;;;;;;;5069962;28;20456;-76
2022/12/09 03:38:03;;;;;;;15.67;14.07;;;;;;;;;;5070220;28;20440;-75
2022/12/09 03:40:31;;;;;;;14.03;12.50;;;;;;;;;;5069803;28;20451;-76
2022/12/09 03:43:01;;;;;;;15.97;13.97;;;;;;;;;;5075994;28;20993;-75
2022/12/09 03:45:30;;;;;;;13.93;12.53;;;;;;;;;;5077810;28;21193;-75
2022/12/09 03:47:57;;;;;;;15.60;13.37;;;;;;;;;;5074844;28;20435;-77
2022/12/09 03:50:26;;;;;;;15.00;13.03;;;;;;;;;;5075363;28;20440;-76
2022/12/09 03:52:54;;;;;;;17.30;13.80;;;;;;;;;;5073989;28;20443;-76
2022/12/09 03:55:25;;;;;;;16.77;14.80;;;;;;;;;;5073834;28;20484;-75
2022/12/09 03:57:54;;;;;;;15.13;13.53;;;;;;;;;;5077630;28;20463;-75
2022/12/09 04:00:22;;;;;;;17.80;13.43;;;;;;;;;;5077986;28;21180;-78
2022/12/09 04:02:50;;;;;;;16.40;14.00;;;;;;;;;;5079106;28;20455;-76
2022/12/09 04:05:18;;;;;;;14.80;12.73;;;;;;;;;;5074887;28;20948;-75
2022/12/09 04:07:45;;;;;;;17.30;14.60;;;;;;;;;;5075579;28;20463;-77
2022/12/09 04:10:12;;;;;;;14.87;13.30;;;;;;;;;;5073786;28;20440;-76
2022/12/09 04:12:39;;;;;;;14.97;12.70;;;;;;;;;;5073326;28;20445;-76
2022/12/09 04:15:08;;;;;;;14.67;12.63;;;;;;;;;;5073660;28;20930;-76
2022/12/09 04:17:36;;;;;;;16.13;13.03;;;;;;;;;;5072904;28;20813;-77
2022/12/09 04:20:04;;;;;;;15.93;12.80;;;;;;;;;;5073558;28;20464;-77
2022/12/09 04:22:31;;;;;;;18.30;14.20;;;;;;;;;;5083070;28;20445;-75
2022/12/09 04:24:58;;;;;;;17.07;13.93;;;;;;;;;;5088092;28;20448;-76
2022/12/09 04:27:25;;;;;;;17.27;14.27;;;;;;;;;;5090000;28;20443;-76
2022/12/09 04:29:52;;;;;;;19.50;14.93;;;;;;;;;;5085397;28;20456;-75
2022/12/09 04:32:20;;;;;;;16.50;13.90;;;;;;;;;;5074857;28;20447;-75
2022/12/09 04:34:47;;;;;;;14.87;12.63;;;;;;;;;;5073835;28;20468;-76
2022/12/09 04:37:15;;;;;;;18.40;13.97;;;;;;;;;;5074027;28;20444;-76
2022/12/09 04:39:42;;;;;;;17.80;14.97;;;;;;;;;;5073523;28;20450;-76
2022/12/09 04:42:09;;;;;;;14.57;12.97;;;;;;;;;;5076269;28;20959;-76
2022/12/09 04:44:36;;;;;;;13.77;12.30;;;;;;;;;;5075239;28;20451;-76
2022/12/09 04:47:03;;;;;;;15.90;14.20;;;;;;;;;;5074819;28;20833;-77
2022/12/09 04:49:31;;;;;;;17.63;14.30;;;;;;;;;;5075148;28;20449;-76
2022/12/09 04:51:58;;;;;;;16.70;14.00;;;;;;;;;;5074811;28;20460;-76
2022/12/09 04:54:26;;;;;;;17.03;14.10;;;;;;;;;;5073821;28;20473;-75
2022/12/09 04:56:53;;;;;;;16.93;14.40;;;;;;;;;;5073450;28;20834;-76
2022/12/09 04:59:20;;;;;;;17.17;13.90;;;;;;;;;;5072354;28;20831;-76
2022/12/09 05:01:47;;;;;;;15.50;13.90;;;;;;;;;;5072707;28;20441;-76
2022/12/09 05:04:14;;;;;;;18.73;14.17;;;;;;;;;;5073158;28;20463;-76
2022/12/09 05:06:41;;;;;;;16.93;14.40;;;;;;;;;;5072863;28;21076;-75
2022/12/09 05:09:10;;;;;;;18.10;13.60;;;;;;;;;;5073409;28;20452;-77
2022/12/09 05:11:39;;;;;;;15.33;13.27;;;;;;;;;;5073151;28;20910;-76
2022/12/09 05:14:06;;;;;;;15.57;13.30;;;;;;;;;;5073104;28;20469;-76
2022/12/09 05:16:33;;;;;;;17.37;13.90;;;;;;;;;;5077829;28;20469;-76
2022/12/09 05:19:00;;;;;;;35.90;28.30;;;;;;;;;;5073367;28;20440;-76
2022/12/09 05:21:27;;;;;;;28.23;20.93;;;;;;;;;;5073331;28;20444;-76
2022/12/09 05:23:54;;;;;;;16.20;14.07;;;;;;;;;;5072932;28;20440;-76
2022/12/09 05:26:22;;;;;;;15.87;13.57;;;;;;;;;;5080859;28;20508;-77
2022/12/09 05:28:51;;;;;;;15.10;13.50;;;;;;;;;;5092280;28;20442;-77
2022/12/09 05:31:19;;;;;;;15.80;12.90;;;;;;;;;;5092249;28;20444;-75
2022/12/09 05:33:46;;;;;;;16.13;12.70;;;;;;;;;;5091616;28;20440;-75
2022/12/09 05:36:14;;;;;;;15.30;13.70;;;;;;;;;;5092219;28;20586;-77
2022/12/09 05:38:41;;;;;;;15.63;12.60;;;;;;;;;;5092216;28;20474;-77
2022/12/09 05:41:08;;;;;;;17.17;15.13;;;;;;;;;;5093295;28;20450;-77
2022/12/09 05:43:36;;;;;;;17.97;14.03;;;;;;;;;;5093899;28;21362;-76
2022/12/09 05:46:05;;;;;;;17.27;13.87;;;;;;;;;;5093986;28;20475;-77
2022/12/09 05:48:32;;;;;;;14.83;13.20;;;;;;;;;;5092135;28;20439;-76
2022/12/09 05:50:59;;;;;;;14.20;12.20;;;;;;;;;;5091807;28;20458;-76
2022/12/09 05:53:27;;;;;;;14.93;12.30;;;;;;;;;;5091237;28;21104;-76
2022/12/09 05:55:54;;;;;;;17.30;12.73;;;;;;;;;;5091274;28;20495;-76
2022/12/09 05:58:21;;;;;;;14.87;12.77;;;;;;;;;;5091683;28;20444;-77
2022/12/09 06:00:48;;;;;;;13.53;11.80;;;;;;;;;;5091319;28;20523;-76
2022/12/09 06:03:17;;;;;;;16.60;12.13;;;;;;;;;;5091475;28;20440;-76
2022/12/09 06:05:44;;;;;;;19.07;15.83;;;;;;;;;;5091028;28;20456;-77
2022/12/09 06:08:11;;;;;;;18.00;15.33;;;;;;;;;;5091577;28;20454;-76
2022/12/09 06:10:39;;;;;;;17.30;13.43;;;;;;;;;;5091527;28;20446;-76
2022/12/09 06:13:06;;;;;;;22.77;17.60;;;;;;;;;;5090982;28;20898;-76
2022/12/09 06:15:34;;;;;;;15.40;13.40;;;;;;;;;;5090962;28;20479;-77
2022/12/09 06:18:01;;;;;;;21.83;13.40;;;;;;;;;;5091529;28;20446;-76
2022/12/09 06:20:29;;;;;;;15.87;13.00;;;;;;;;;;5091121;28;20801;-76
2022/12/09 06:22:56;;;;;;;16.00;14.10;;;;;;;;;;5090979;28;20436;-76
2022/12/09 06:25:23;;;;;;;20.90;13.70;;;;;;;;;;5090921;28;20987;-76
2022/12/09 06:27:52;;;;;;;16.43;14.50;;;;;;;;;;5091042;28;20448;-76
2022/12/09 06:30:19;;;;;;;16.00;14.33;;;;;;;;;;5090918;28;20464;-77
2022/12/09 06:32:46;;;;;;;14.63;12.83;;;;;;;;;;5090926;28;20458;-76
2022/12/09 06:35:14;;;;;;;15.43;13.30;;;;;;;;;;5090844;28;20486;-77
2022/12/09 06:37:42;;;;;;;16.60;14.47;;;;;;;;;;5090949;28;20440;-76
2022/12/09 06:40:09;;;;;;;15.80;14.20;;;;;;;;;;5091122;28;20455;-76
2022/12/09 06:42:36;;;;;;;21.27;14.80;;;;;;;;;;5091102;28;20451;-76
2022/12/09 06:45:04;;;;;;;14.57;12.93;;;;;;;;;;5097155;28;20475;-76
2022/12/09 06:47:31;;;;;;;13.80;12.40;;;;;;;;;;5098840;28;20443;-76
2022/12/09 06:50:00;;;;;;;15.70;13.20;;;;;;;;;;5092461;28;20810;-75
2022/12/09 06:52:27;;;;;;;16.87;13.70;;;;;;;;;;5090677;28;21024;-77
2022/12/09 06:54:56;;;;;;;15.73;13.70;;;;;;;;;;5090386;28;20472;-78
2022/12/09 06:57:23;;;;;;;18.90;14.50;;;;;;;;;;5090601;28;20444;-75
2022/12/09 06:59:50;;;;;;;17.73;15.67;;;;;;;;;;5093638;28;20452;-76
2022/12/09 07:02:17;;;;;;;16.70;14.90;;;;;;;;;;5097985;28;20440;-77
2022/12/09 07:04:44;;;;;;;19.53;15.50;;;;;;;;;;5092989;28;20436;-78
2022/12/09 07:07:11;;;;;;;15.60;14.00;;;;;;;;;;5093414;28;20440;-76
2022/12/09 07:09:39;;;;;;;16.53;13.70;;;;;;;;;;5093561;28;20904;-76
2022/12/09 07:12:08;;;;;;;16.83;13.20;;;;;;;;;;5092068;28;20440;-77
2022/12/09 07:14:35;;;;;;;16.97;14.53;;;;;;;;;;5090523;28;20479;-77
2022/12/09 07:17:02;;;;;;;17.27;13.13;;;;;;;;;;5093320;28;20558;-77
2022/12/09 07:19:30;;;;;;;17.30;14.50;;;;;;;;;;5095067;28;20516;-76
2022/12/09 07:21:57;;;;;;;15.60;13.90;;;;;;;;;;5094872;28;20456;-76
2022/12/09 07:24:24;;;;;;;18.80;15.43;;;;;;;;;;5094418;28;20935;-77
2022/12/09 07:26:51;;;;;;;17.73;15.93;;;;;;;;;;5097155;28;20931;-75
2022/12/09 07:29:20;;;;;;;16.70;15.00;;;;;;;;;;5111220;28;20483;-77
2022/12/09 07:31:47;;;;;;;16.97;14.30;;;;;;;;;;5103614;28;20453;-76
2022/12/09 07:34:14;;;;;;;18.00;14.50;;;;;;;;;;5100469;28;20482;-75
2022/12/09 07:36:41;;;;;;;18.93;14.07;;;;;;;;;;5102039;28;20470;-76
2022/12/09 07:39:10;;;;;;;18.53;13.33;;;;;;;;;;5100068;28;20911;-76
2022/12/09 07:41:38;;;;;;;16.10;14.10;;;;;;;;;;5104254;28;20451;-76
2022/12/09 07:44:05;;;;;;;16.17;12.60;;;;;;;;;;5104605;28;20440;-76
2022/12/09 07:46:34;;;;;;;22.20;13.53;;;;;;;;;;5106506;28;20466;-75
2022/12/09 07:49:02;;;;;;;17.50;14.27;;;;;;;;;;5096089;28;20546;-77
2022/12/09 07:51:29;;;;;;;15.73;14.03;;;;;;;;;;5097474;28;20439;-77
2022/12/09 07:53:56;;;;;;;18.50;13.77;;;;;;;;;;5094977;28;20447;-77
2022/12/09 07:56:24;;;;;;;16.80;12.63;;;;;;;;;;5094551;28;20486;-76
2022/12/09 07:58:52;;;;;;;17.37;15.50;;;;;;;;;;5093333;28;20451;-77
2022/12/09 08:01:19;;;;;;;17.27;13.10;;;;;;;;;;5094030;28;20548;-78
2022/12/09 08:03:48;;;;;;;13.47;12.00;;;;;;;;;;5093664;28;20955;-78
2022/12/09 08:06:16;;;;;;;16.47;13.30;;;;;;;;;;5094190;28;20828;-78
2022/12/09 08:08:43;;;;;;;15.77;13.50;;;;;;;;;;5094003;28;20440;-78
2022/12/09 08:11:11;;;;;;;17.80;13.63;;;;;;;;;;5094244;28;20450;-77
2022/12/09 08:13:40;;;;;;;15.90;14.20;;;;;;;;;;5094002;28;20783;-78
2022/12/09 08:16:08;;;;;;;15.03;12.27;;;;;;;;;;5093286;28;20484;-76
2022/12/09 08:18:36;;;;;;;16.13;13.33;;;;;;;;;;5093860;28;20436;-77
2022/12/09 08:21:05;;;;;;;17.83;13.77;;;;;;;;;;5094447;28;20813;-77
2022/12/09 08:23:32;;;;;;;17.23;13.63;;;;;;;;;;5093520;28;20440;-76
2022/12/09 08:26:00;;;;;;;18.53;13.87;;;;;;;;;;5093733;28;20447;-76
2022/12/09 08:28:27;;;;;;;16.70;13.63;;;;;;;;;;5093151;28;20450;-77
2022/12/09 08:30:54;;;;;;;21.33;13.33;;;;;;;;;;5093610;28;20953;-77
2022/12/09 08:33:21;;;;;;;20.23;13.87;;;;;;;;;;5093098;28;20446;-76
2022/12/09 08:35:48;;;;;;;17.73;15.17;;;;;;;;;;5093761;28;20483;-77
2022/12/09 08:38:17;;;;;;;20.73;14.77;;;;;;;;;;5093558;28;20427;-77
2022/12/09 08:40:44;;;;;;;20.63;15.23;;;;;;;;;;5094302;28;20563;-77
2022/12/09 08:43:11;;;;;;;21.03;14.90;;;;;;;;;;5093319;28;20451;-77
2022/12/09 08:45:39;;;;;;;17.97;14.23;;;;;;;;;;5093238;28;20635;-77
2022/12/09 08:48:06;;;;;;;19.53;15.90;;;;;;;;;;5093251;28;20435;-77
2022/12/09 08:50:33;;;;;;;17.93;15.40;;;;;;;;;;5093252;28;20443;-77
2022/12/09 08:53:01;;;;;;;17.40;14.70;;;;;;;;;;5093261;28;20444;-77
2022/12/09 08:55:29;;;;;;;16.20;13.30;;;;;;;;;;5093082;28;20479;-77
2022/12/09 08:57:57;;;;;;;17.67;14.57;;;;;;;;;;5093228;28;20444;-76
2022/12/09 09:00:24;;;;;;;18.03;14.43;;;;;;;;;;5093140;28;20459;-77
2022/12/09 09:02:51;;;;;;;17.10;13.80;;;;;;;;;;5093222;28;20454;-77
2022/12/09 09:05:19;;;;;;;15.40;13.80;;;;;;;;;;5103473;28;20459;-76
2022/12/09 09:07:46;;;;;;;16.27;14.37;;;;;;;;;;5113016;28;20446;-76
2022/12/09 09:10:13;;;;;;;18.80;15.03;;;;;;;;;;5114135;28;20428;-76
2022/12/09 09:12:41;;;;;;;15.93;14.20;;;;;;;;;;5113351;28;20471;-77
2022/12/09 09:15:09;;;;;;;17.20;15.40;;;;;;;;;;5099004;28;20476;-77
2022/12/09 09:17:36;;;;;;;16.67;14.97;;;;;;;;;;5094939;28;20962;-76
2022/12/09 09:20:03;;;;;;;16.60;14.90;;;;;;;;;;5095714;28;20795;-75
2022/12/09 09:22:30;;;;;;;18.30;16.40;;;;;;;;;;5092620;28;20531;-76
2022/12/09 09:24:57;;;;;;;24.93;15.97;;;;;;;;;;5092484;28;20447;-77
2022/12/09 09:27:24;;;;;;;18.70;14.50;;;;;;;;;;5092451;28;20927;-77
2022/12/09 09:29:53;;;;;;;16.57;14.77;;;;;;;;;;5099187;28;20448;-76
2022/12/09 09:32:20;;;;;;;16.80;15.10;;;;;;;;;;5102692;28;20448;-76
2022/12/09 09:34:49;;;;;;;24.47;16.40;;;;;;;;;;5102654;28;20447;-76
2022/12/09 09:37:16;;;;;;;19.10;15.80;;;;;;;;;;5101167;28;20469;-78
2022/12/09 09:39:43;;;;;;;19.77;15.50;;;;;;;;;;5099031;28;20477;-76
2022/12/09 09:42:14;;;;;;;24.80;15.70;;;;;;;;;;5089119;28;20440;-77
2022/12/09 09:44:45;;;;;;;20.10;16.90;;;;;;;;;;5086621;28;20449;-77
2022/12/09 09:47:15;;;;;;;19.30;16.40;;;;;;;;;;5087916;28;20440;-77
2022/12/09 09:49:44;;;;;;;22.80;15.83;;;;;;;;;;5096720;28;20513;-77
2022/12/09 09:52:14;;;;;;;18.90;16.23;;;;;;;;;;5105715;28;20435;-77
2022/12/09 09:54:42;;;;;;;19.90;17.00;;;;;;;;;;5111294;28;20427;-77
2022/12/09 09:57:13;;;;;;;23.03;16.50;;;;;;;;;;5085607;28;20486;-77
2022/12/09 09:59:43;;;;;;;20.30;17.30;;;;;;;;;;5088632;28;20452;-76
2022/12/09 10:02:19;;;;;;;18.87;15.50;;;;;;;;;;5092997;28;20432;-76
2022/12/09 10:04:51;;;;;;;22.53;16.67;;;;;;;;;;5101507;28;21007;-76
2022/12/09 10:07:20;;;;;;;19.20;16.43;;;;;;;;;;5100697;28;20432;-77
2022/12/09 10:09:49;;;;;;;18.53;16.57;;;;;;;;;;5105339;28;20451;-76
2022/12/09 10:12:20;;;;;;;19.03;16.90;;;;;;;;;;5092294;28;20444;-76
2022/12/09 10:14:52;;;;;;;20.80;17.80;;;;;;;;;;5090302;28;20441;-77
2022/12/09 10:17:26;;;;;;;21.53;17.30;;;;;;;;;;5077349;28;20467;-77
2022/12/09 10:19:56;;;;;;;22.07;18.37;;;;;;;;;;5072095;28;20515;-77
2022/12/09 10:22:25;;;;;;;21.70;17.07;;;;;;;;;;5072079;28;20967;-77
2022/12/09 10:24:53;;;;;;;19.00;17.03;;;;;;;;;;5072301;28;20545;-77
2022/12/09 10:27:27;;;;;;;21.00;17.10;;;;;;;;;;5073042;28;20443;-76
2022/12/09 10:29:56;;;;;;;24.37;16.60;;;;;;;;;;5071754;28;20448;-77
2022/12/09 10:32:25;;;;;;;20.90;17.33;;;;;;;;;;5079189;28;20452;-77
2022/12/09 10:34:52;;;;;;;18.77;16.47;;;;;;;;;;5085358;28;20462;-78
2022/12/09 10:37:30;;;;;;;20.97;17.23;;;;;;;;;;5091164;28;20478;-78
2022/12/09 10:40:01;;;;;;;20.23;16.50;;;;;;;;;;5099425;28;20436;-78
2022/12/09 10:45:14;;;;;;;19.03;16.47;;;;;;;;;;5112061;28;20427;-77
2022/12/09 10:47:49;;;;;;;21.50;17.27;;;;;;;;;;5112556;28;20825;-77
2022/12/09 10:50:26;;;;;;;19.33;17.23;;;;;;;;;;5114434;28;20434;-77
2022/12/09 10:52:53;;;;;;;22.63;16.10;;;;;;;;;;5113636;28;20431;-77
2022/12/09 10:55:27;;;;;;;21.77;17.20;;;;;;;;;;5107827;28;20459;-77
2022/12/09 10:58:09;;;;;;;24.97;17.23;;;;;;;;;;5088781;28;20443;-77
2022/12/09 11:00:36;;;;;;;23.37;18.90;;;;;;;;;;5106129;28;20459;-78
2022/12/09 11:03:22;;;;;;;18.90;16.90;;;;;;;;;;5098641;28;20543;-78
2022/12/09 11:05:55;;;;;;;23.30;16.70;;;;;;;;;;5085157;28;20465;-78
2022/12/09 11:08:22;;;;;;;21.70;18.03;;;;;;;;;;5083025;28;20452;-77
2022/12/09 11:10:50;;;;;;;24.07;18.93;;;;;;;;;;5091277;28;20443;-76
2022/12/09 11:13:18;;;;;;;22.10;18.40;;;;;;;;;;5090423;28;20441;-76
2022/12/09 11:15:46;;;;;;;19.20;17.20;;;;;;;;;;5090387;28;20925;-77
2022/12/09 11:18:19;;;;;;;24.27;16.70;;;;;;;;;;5091034;28;20450;-76
2022/12/09 11:20:55;;;;;;;20.33;18.10;;;;;;;;;;5090438;28;20451;-77
2022/12/09 11:23:22;;;;;;;21.27;17.53;;;;;;;;;;5090879;28;20425;-78
2022/12/09 11:25:54;;;;;;;21.00;17.73;;;;;;;;;;5091087;28;20508;-77
2022/12/09 11:28:24;;;;;;;23.70;18.27;;;;;;;;;;5091018;28;20456;-77
2022/12/09 11:30:53;;;;;;;21.50;18.13;;;;;;;;;;5090554;28;20821;-76
2022/12/09 11:33:24;;;;;;;19.27;17.20;;;;;;;;;;5089415;28;20530;-76
2022/12/09 11:35:54;;;;;;;18.77;16.80;;;;;;;;;;5089893;28;20914;-75
2022/12/09 11:38:30;;;;;;;20.03;17.87;;;;;;;;;;5090672;28;20450;-77
2022/12/09 11:41:00;;;;;;;22.93;18.50;;;;;;;;;;5090509;28;20446;-78
2022/12/09 11:43:31;;;;;;;17.73;15.87;;;;;;;;;;5090483;28;20502;-77
2022/12/09 11:45:58;;;;;;;20.60;18.40;;;;;;;;;;5090322;28;20467;-76
2022/12/09 11:48:28;;;;;;;20.67;17.37;;;;;;;;;;5089989;28;20461;-78
2022/12/09 11:50:56;;;;;;;21.70;17.50;;;;;;;;;;5090661;28;20456;-77
2022/12/09 11:53:28;;;;;;;22.53;17.00;;;;;;;;;;5089481;28;20447;-78
2022/12/09 11:55:58;;;;;;;20.57;17.50;;;;;;;;;;5089770;28;20479;-75
2022/12/09 11:58:28;;;;;;;21.60;17.83;;;;;;;;;;5081355;28;20964;-77
2022/12/09 12:00:56;;;;;;;21.53;16.83;;;;;;;;;;5085940;28;20948;-77
2022/12/09 12:03:26;;;;;;;21.80;17.67;;;;;;;;;;5091991;28;20452;-76
2022/12/09 12:05:55;;;;;;;22.53;18.00;;;;;;;;;;5100932;28;20453;-76
2022/12/09 12:08:26;;;;;;;23.60;18.90;;;;;;;;;;5101540;28;20441;-76
2022/12/09 12:10:55;;;;;;;21.93;18.70;;;;;;;;;;5101629;28;20441;-76
2022/12/09 12:13:24;;;;;;;21.67;18.27;;;;;;;;;;5102051;28;20444;-76
2022/12/09 12:15:56;;;;;;;21.20;17.93;;;;;;;;;;5101581;28;20883;-76
2022/12/09 12:18:23;;;;;;;21.70;18.70;;;;;;;;;;5096843;28;20928;-77
2022/12/09 12:21:08;;;;;;;22.37;18.77;;;;;;;;;;5094962;28;20448;-77
2022/12/09 12:23:48;;;;;;;21.27;17.47;;;;;;;;;;5043521;28;20804;-77
2022/12/09 12:26:17;;;;;;;21.20;17.17;;;;;;;;;;5094107;28;20443;-76
2022/12/09 12:28:52;;;;;;;20.70;18.50;;;;;;;;;;5093484;28;20443;-77
2022/12/09 12:31:32;;;;;;;21.00;18.77;;;;;;;;;;5094861;28;20433;-76
2022/12/09 12:34:05;;;;;;;25.00;19.07;;;;;;;;;;5095182;28;20937;-76
2022/12/09 12:36:37;;;;;;;23.60;17.93;;;;;;;;;;5095641;28;20508;-76
2022/12/09 12:39:14;;;;;;;26.23;18.70;;;;;;;;;;5093927;28;20425;-77
2022/12/09 12:41:45;;;;;;;22.23;18.90;;;;;;;;;;5093444;28;20438;-77
2022/12/09 12:47:18;;;;;;;21.40;18.33;;;;;;;;;;5095633;28;20413;-76
2022/12/09 12:49:51;;;;;;;24.57;18.80;;;;;;;;;;5098639;28;20433;-76
2022/12/09 12:52:24;;;;;;;22.90;18.43;;;;;;;;;;5102205;28;20437;-76
2022/12/09 12:54:57;;;;;;;25.37;18.30;;;;;;;;;;5103379;28;20433;-76
2022/12/09 12:57:27;;;;;;;26.30;19.30;;;;;;;;;;5098437;28;20485;-77
2022/12/09 12:59:58;;;;;;;26.40;20.83;;;;;;;;;;5101745;28;20461;-76
2022/12/09 13:02:30;;;;;;;22.13;18.30;;;;;;;;;;5107411;28;20451;-77
2022/12/09 13:04:59;;;;;;;22.63;18.57;;;;;;;;;;5105000;28;20440;-76
2022/12/09 13:07:29;;;;;;;24.20;18.77;;;;;;;;;;5103431;28;20455;-76
2022/12/09 13:10:00;;;;;;;21.43;18.10;;;;;;;;;;5106334;28;20452;-76
2022/12/09 13:15:12;;;;;;;24.07;19.50;;;;;;;;;;5106341;28;20449;-76
2022/12/09 13:17:40;;;;;;;20.60;18.40;;;;;;;;;;5107435;28;20917;-77
2022/12/09 13:20:08;;;;;;;20.73;17.70;;;;;;;;;;5093208;28;20441;-77
2022/12/09 13:22:44;;;;;;;23.50;19.07;;;;;;;;;;5092200;28;20435;-77
2022/12/09 13:25:15;;;;;;;22.43;19.23;;;;;;;;;;5092766;28;20468;-77
2022/12/09 13:27:45;;;;;;;21.73;19.20;;;;;;;;;;5092338;28;20478;-76
2022/12/09 13:30:16;;;;;;;23.27;19.67;;;;;;;;;;5092031;28;20449;-76
2022/12/09 13:32:55;;;;;;;22.67;19.70;;;;;;;;;;5091854;28;20855;-77
2022/12/09 13:35:24;;;;;;;22.27;18.33;;;;;;;;;;5092015;28;20476;-77
2022/12/09 13:37:58;;;;;;;23.83;19.27;;;;;;;;;;5093449;28;20480;-76
2022/12/09 13:40:43;;;;;;;23.60;19.23;;;;;;;;;;5091595;28;20444;-76
2022/12/09 13:43:16;;;;;;;24.27;20.13;;;;;;;;;;5091553;28;20425;-77
2022/12/09 13:45:48;;;;;;;24.23;19.60;;;;;;;;;;5092560;28;20467;-77
2022/12/09 13:48:30;;;;;;;28.57;20.20;;;;;;;;;;5091977;28;20451;-76
2022/12/09 13:50:58;;;;;;;24.33;19.43;;;;;;;;;;5093948;28;20453;-77
2022/12/09 13:53:26;;;;;;;26.93;20.20;;;;;;;;;;5097432;28;20597;-76
2022/12/09 13:55:55;;;;;;;28.60;20.80;;;;;;;;;;5092988;28;20474;-76
2022/12/09 13:58:44;;;;;;;24.50;20.07;;;;;;;;;;5094905;28;21014;-77
2022/12/09 14:01:20;;;;;;;26.33;21.67;;;;;;;;;;5092736;28;20442;-76
2022/12/09 14:03:52;;;;;;;27.33;21.53;;;;;;;;;;5091477;28;20526;-76
2022/12/09 14:06:21;;;;;;;25.30;20.67;;;;;;;;;;5094373;28;21024;-77
2022/12/09 14:08:51;;;;;;;28.47;20.60;;;;;;;;;;5093248;28;20437;-77
2022/12/09 14:11:33;;;;;;;30.00;21.23;;;;;;;;;;5093146;28;20932;-76
2022/12/09 14:14:33;;;;;;;26.10;21.50;;;;;;;;;;5090046;28;20436;-76
2022/12/09 14:17:00;;;;;;;29.50;21.67;;;;;;;;;;5090620;28;20481;-77
2022/12/09 14:19:51;;;;;;;26.93;20.27;;;;;;;;;;5090948;28;20940;-77
2022/12/09 14:22:32;;;;;;;25.20;20.57;;;;;;;;;;5090580;28;20527;-76
2022/12/09 14:24:59;;;;;;;32.03;21.03;;;;;;;;;;5090883;28;20874;-77
2022/12/09 14:27:27;;;;;;;29.50;21.90;;;;;;;;;;5090715;28;20453;-76
2022/12/09 14:29:57;;;;;;;25.47;20.87;;;;;;;;;;5090946;28;20908;-76
2022/12/09 14:32:25;;;;;;;27.30;21.70;;;;;;;;;;5091132;28;20441;-77
2022/12/09 14:35:04;;;;;;;29.63;22.27;;;;;;;;;;5090792;28;20445;-76
2022/12/09 14:37:56;;;;;;;28.67;21.07;;;;;;;;;;5090860;28;20480;-76